sensor_id;sensor_type;location;lat;lon;timestamp;temperature;humidity
12460;DHT22;6295;49.452;8.466;2023-05-07T04:18:42;12.70;99.90
12460;DHT22;6295;49.452;8.466;2023-05-07T04:22:44;12.70;99.90
12460;DHT22;6295;49.452;8.466;2023-05-07T04:30:49;12.70;99.90
12460;DHT22;6295;49.452;8.466;2023-05-07T04:34:52;12.70;99.90
12460;DHT22;6295;49.452;8.466;2023-05-07T04:38:54;12.70;99.90
12460;DHT22;6295;49.452;8.466;2023-05-07T04:42:56;12.70;99.90
12460;DHT22;6295;49.452;8.466;2023-05-07T04:46:59;12.80;99.90
12460;DHT22;6295;49.452;8.466;2023-05-07T04:59:06;13.00;99.90
12460;DHT22;6295;49.452;8.466;2023-05-07T05:03:10;13.00;99.90
12460;DHT22;6295;49.452;8.466;2023-05-07T05:19:20;13.30;99.90
12460;DHT22;6295;49.452;8.466;2023-05-07T05:23:22;13.40;99.90
12460;DHT22;6295;49.452;8.466;2023-05-07T05:27:24;13.50;99.90
12460;DHT22;6295;49.452;8.466;2023-05-07T05:31:26;13.60;99.90
12460;DHT22;6295;49.452;8.466;2023-05-07T05:47:37;13.90;99.90
12460;DHT22;6295;49.452;8.466;2023-05-07T05:51:41;14.00;99.90
12460;DHT22;6295;49.452;8.466;2023-05-07T05:55:43;14.00;99.90
12460;DHT22;6295;49.452;8.466;2023-05-07T06:07:52;14.40;99.90
12460;DHT22;6295;49.452;8.466;2023-05-07T06:16:02;14.60;99.90
12460;DHT22;6295;49.452;8.466;2023-05-07T06:20:06;14.70;99.90
12460;DHT22;6295;49.452;8.466;2023-05-07T06:24:10;14.80;99.90
12460;DHT22;6295;49.452;8.466;2023-05-07T06:28:12;14.90;99.90
12460;DHT22;6295;49.452;8.466;2023-05-07T06:32:14;15.00;99.90
12460;DHT22;6295;49.452;8.466;2023-05-07T06:36:17;15.10;99.90
12460;DHT22;6295;49.452;8.466;2023-05-07T06:48:25;15.30;99.90
12460;DHT22;6295;49.452;8.466;2023-05-07T06:52:27;15.50;99.90
12460;DHT22;6295;49.452;8.466;2023-05-07T06:56:31;15.60;99.90
12460;DHT22;6295;49.452;8.466;2023-05-07T07:00:33;15.60;99.90
12460;DHT22;6295;49.452;8.466;2023-05-07T07:04:35;15.70;99.90
12460;DHT22;6295;49.452;8.466;2023-05-07T07:12:41;16.00;99.90
12460;DHT22;6295;49.452;8.466;2023-05-07T07:16:44;16.00;99.90
12460;DHT22;6295;49.452;8.466;2023-05-07T07:20:47;16.20;99.90
12460;DHT22;6295;49.452;8.466;2023-05-07T07:24:49;16.20;99.90
12460;DHT22;6295;49.452;8.466;2023-05-07T07:28:53;16.40;99.90
12460;DHT22;6295;49.452;8.466;2023-05-07T07:32:55;16.50;99.90
12460;DHT22;6295;49.452;8.466;2023-05-07T07:37:02;16.60;99.90
12460;DHT22;6295;49.452;8.466;2023-05-07T07:41:08;16.70;99.90
12460;DHT22;6295;49.452;8.466;2023-05-07T07:45:11;16.70;99.90
12460;DHT22;6295;49.452;8.466;2023-05-07T07:49:14;16.80;99.90
12460;DHT22;6295;49.452;8.466;2023-05-07T07:57:19;17.00;99.90
12460;DHT22;6295;49.452;8.466;2023-05-07T08:01:22;17.10;99.90
12460;DHT22;6295;49.452;8.466;2023-05-07T08:05:25;17.20;99.90
12460;DHT22;6295;49.452;8.466;2023-05-07T08:09:27;17.30;99.90
12460;DHT22;6295;49.452;8.466;2023-05-07T08:13:29;17.30;99.90
12460;DHT22;6295;49.452;8.466;2023-05-07T08:17:33;17.40;99.90
12460;DHT22;6295;49.452;8.466;2023-05-07T08:21:40;17.50;99.90
12460;DHT22;6295;49.452;8.466;2023-05-07T08:29:45;17.60;99.90
12460;DHT22;6295;49.452;8.466;2023-05-07T08:33:50;17.70;99.90
12460;DHT22;6295;49.452;8.466;2023-05-07T08:37:52;17.70;99.90
12460;DHT22;6295;49.452;8.466;2023-05-07T08:41:55;17.80;99.90
12460;DHT22;6295;49.452;8.466;2023-05-07T08:54:09;18.00;99.90
12460;DHT22;6295;49.452;8.466;2023-05-07T08:58:13;18.10;99.90
12460;DHT22;6295;49.452;8.466;2023-05-07T09:06:20;18.40;99.90
12460;DHT22;6295;49.452;8.466;2023-05-07T09:10:22;18.50;99.90
12460;DHT22;6295;49.452;8.466;2023-05-07T09:14:24;18.60;99.90
12460;DHT22;6295;49.452;8.466;2023-05-07T09:18:26;18.70;99.90
12460;DHT22;6295;49.452;8.466;2023-05-07T09:22:31;18.70;99.90
12460;DHT22;6295;49.452;8.466;2023-05-07T09:34:38;18.80;99.90
12460;DHT22;6295;49.452;8.466;2023-05-07T09:38:41;18.90;99.90
12460;DHT22;6295;49.452;8.466;2023-05-07T09:42:44;19.10;99.90
12460;DHT22;6295;49.452;8.466;2023-05-07T09:46:53;19.20;99.90
12460;DHT22;6295;49.452;8.466;2023-05-07T09:50:56;19.30;99.90
12460;DHT22;6295;49.452;8.466;2023-05-07T09:55:00;19.40;99.90
12460;DHT22;6295;49.452;8.466;2023-05-07T09:59:05;19.60;99.90
12460;DHT22;6295;49.452;8.466;2023-05-07T10:03:09;19.90;99.90
12460;DHT22;6295;49.452;8.466;2023-05-07T10:07:14;20.00;99.90
12460;DHT22;6295;49.452;8.466;2023-05-07T10:11:19;20.10;99.90
12460;DHT22;6295;49.452;8.466;2023-05-07T10:15:22;20.20;99.90
12460;DHT22;6295;49.452;8.466;2023-05-07T10:19:25;20.30;99.90
12460;DHT22;6295;49.452;8.466;2023-05-07T10:27:32;20.70;99.90
12460;DHT22;6295;49.452;8.466;2023-05-07T10:31:53;20.90;99.90
12460;DHT22;6295;49.452;8.466;2023-05-07T10:35:58;21.10;99.90
12460;DHT22;6295;49.452;8.466;2023-05-07T10:40:02;21.30;99.90
12460;DHT22;6295;49.452;8.466;2023-05-07T10:44:06;21.40;99.90
12460;DHT22;6295;49.452;8.466;2023-05-07T10:48:10;21.50;99.90
12460;DHT22;6295;49.452;8.466;2023-05-07T10:52:18;21.60;99.90
12460;DHT22;6295;49.452;8.466;2023-05-07T10:56:27;21.70;99.90
12460;DHT22;6295;49.452;8.466;2023-05-07T11:00:43;21.90;99.90
12460;DHT22;6295;49.452;8.466;2023-05-07T11:04:45;22.10;99.90
12460;DHT22;6295;49.452;8.466;2023-05-07T11:09:07;22.40;99.90
12460;DHT22;6295;49.452;8.466;2023-05-07T11:13:09;22.50;99.90
12460;DHT22;6295;49.452;8.466;2023-05-07T11:17:13;22.50;99.90
12460;DHT22;6295;49.452;8.466;2023-05-07T11:25:34;22.70;99.90
12460;DHT22;6295;49.452;8.466;2023-05-07T11:33:40;22.90;99.90
12460;DHT22;6295;49.452;8.466;2023-05-07T11:41:44;23.10;99.90
12460;DHT22;6295;49.452;8.466;2023-05-07T11:45:48;23.30;99.90
12460;DHT22;6295;49.452;8.466;2023-05-07T11:49:53;23.40;99.90
12460;DHT22;6295;49.452;8.466;2023-05-07T11:53:56;23.50;99.90
12460;DHT22;6295;49.452;8.466;2023-05-07T12:02:00;23.70;99.90
12460;DHT22;6295;49.452;8.466;2023-05-07T12:18:13;24.10;99.90
12460;DHT22;6295;49.452;8.466;2023-05-07T12:22:18;24.30;99.90
12460;DHT22;6295;49.452;8.466;2023-05-07T12:34:25;24.40;99.90
12460;DHT22;6295;49.452;8.466;2023-05-07T12:38:35;24.40;99.90
12460;DHT22;6295;49.452;8.466;2023-05-07T12:42:39;24.50;99.90
12460;DHT22;6295;49.452;8.466;2023-05-07T12:54:48;24.60;99.90
12460;DHT22;6295;49.452;8.466;2023-05-07T12:58:50;24.60;99.90
12460;DHT22;6295;49.452;8.466;2023-05-07T13:11:03;24.10;99.90
12460;DHT22;6295;49.452;8.466;2023-05-07T13:15:07;24.00;99.90
12460;DHT22;6295;49.452;8.466;2023-05-07T13:23:11;23.80;99.90
12460;DHT22;6295;49.452;8.466;2023-05-07T13:27:15;23.80;99.90
12460;DHT22;6295;49.452;8.466;2023-05-07T13:43:27;23.40;99.90
12460;DHT22;6295;49.452;8.466;2023-05-07T13:47:29;23.30;99.90
12460;DHT22;6295;49.452;8.466;2023-05-07T13:51:31;23.30;99.90
12460;DHT22;6295;49.452;8.466;2023-05-07T14:07:42;22.70;99.90
12460;DHT22;6295;49.452;8.466;2023-05-07T14:11:44;22.50;99.90
12460;DHT22;6295;49.452;8.466;2023-05-07T14:15:49;22.30;99.90
12460;DHT22;6295;49.452;8.466;2023-05-07T14:23:55;21.70;99.90
12460;DHT22;6295;49.452;8.466;2023-05-07T14:27:57;21.50;99.90
12460;DHT22;6295;49.452;8.466;2023-05-07T14:32:00;21.30;99.90
12460;DHT22;6295;49.452;8.466;2023-05-07T14:36:03;21.00;99.90
12460;DHT22;6295;49.452;8.466;2023-05-07T14:40:06;20.80;99.90
12460;DHT22;6295;49.452;8.466;2023-05-07T14:44:09;20.60;99.90
12460;DHT22;6295;49.452;8.466;2023-05-07T14:48:12;20.40;99.90
12460;DHT22;6295;49.452;8.466;2023-05-07T14:52:15;20.30;99.90
12460;DHT22;6295;49.452;8.466;2023-05-07T14:56:17;20.10;99.90
12460;DHT22;6295;49.452;8.466;2023-05-07T15:00:20;19.90;99.90
12460;DHT22;6295;49.452;8.466;2023-05-07T15:08:26;19.60;99.90
12460;DHT22;6295;49.452;8.466;2023-05-07T15:12:28;19.30;99.90
12460;DHT22;6295;49.452;8.466;2023-05-07T15:16:30;19.10;99.90
12460;DHT22;6295;49.452;8.466;2023-05-07T15:20:35;18.90;99.90
12460;DHT22;6295;49.452;8.466;2023-05-07T15:24:38;18.70;99.90
12460;DHT22;6295;49.452;8.466;2023-05-07T15:28:40;18.60;99.90
12460;DHT22;6295;49.452;8.466;2023-05-07T15:32:44;18.40;99.90
12460;DHT22;6295;49.452;8.466;2023-05-07T15:36:48;18.30;99.90
12460;DHT22;6295;49.452;8.466;2023-05-07T15:40:51;18.10;99.90
12460;DHT22;6295;49.452;8.466;2023-05-07T15:44:53;18.00;99.90
12460;DHT22;6295;49.452;8.466;2023-05-07T15:48:55;17.90;99.90
12460;DHT22;6295;49.452;8.466;2023-05-07T15:52:59;17.80;99.90
12460;DHT22;6295;49.452;8.466;2023-05-07T15:57:01;17.60;99.90
12460;DHT22;6295;49.452;8.466;2023-05-07T16:01:04;17.50;99.90
12460;DHT22;6295;49.452;8.466;2023-05-07T16:05:07;17.40;99.90
12460;DHT22;6295;49.452;8.466;2023-05-07T16:09:12;17.30;99.90
12460;DHT22;6295;49.452;8.466;2023-05-07T16:13:14;17.30;99.90
12460;DHT22;6295;49.452;8.466;2023-05-07T16:17:18;17.20;99.90
12460;DHT22;6295;49.452;8.466;2023-05-07T16:21:20;17.10;99.90
12460;DHT22;6295;49.452;8.466;2023-05-07T16:25:24;17.10;99.90
12460;DHT22;6295;49.452;8.466;2023-05-07T16:29:26;17.00;99.90
12460;DHT22;6295;49.452;8.466;2023-05-07T16:33:28;17.00;99.90
12460;DHT22;6295;49.452;8.466;2023-05-07T16:37:32;16.90;99.90
12460;DHT22;6295;49.452;8.466;2023-05-07T16:41:36;16.90;99.90
12460;DHT22;6295;49.452;8.466;2023-05-07T16:53:43;16.90;99.90
12460;DHT22;6295;49.452;8.466;2023-05-07T16:57:46;16.90;99.90
12460;DHT22;6295;49.452;8.466;2023-05-07T17:05:52;16.80;99.90
12460;DHT22;6295;49.452;8.466;2023-05-07T17:09:54;16.80;99.90
12460;DHT22;6295;49.452;8.466;2023-05-07T17:14:02;16.80;99.90
12460;DHT22;6295;49.452;8.466;2023-05-07T17:18:09;16.70;99.90
12460;DHT22;6295;49.452;8.466;2023-05-07T17:22:12;16.70;99.90
12460;DHT22;6295;49.452;8.466;2023-05-07T17:26:15;16.70;99.90
12460;DHT22;6295;49.452;8.466;2023-05-07T17:34:22;16.60;99.90
12460;DHT22;6295;49.452;8.466;2023-05-07T17:38:24;16.50;99.90
12460;DHT22;6295;49.452;8.466;2023-05-07T17:42:26;16.50;99.90
12460;DHT22;6295;49.452;8.466;2023-05-07T17:46:30;16.50;99.90
12460;DHT22;6295;49.452;8.466;2023-05-07T17:50:32;16.50;99.90
12460;DHT22;6295;49.452;8.466;2023-05-07T17:54:34;16.50;99.90
12460;DHT22;6295;49.452;8.466;2023-05-07T17:58:36;16.50;99.90
12460;DHT22;6295;49.452;8.466;2023-05-07T18:02:39;16.50;99.90
12460;DHT22;6295;49.452;8.466;2023-05-07T18:06:42;16.50;99.90
12460;DHT22;6295;49.452;8.466;2023-05-07T18:10:44;16.50;99.90
12460;DHT22;6295;49.452;8.466;2023-05-07T18:14:46;16.50;99.90
12460;DHT22;6295;49.452;8.466;2023-05-07T18:18:50;16.50;99.90
12460;DHT22;6295;49.452;8.466;2023-05-07T18:22:52;16.50;99.90
12460;DHT22;6295;49.452;8.466;2023-05-07T18:30:56;16.50;99.90
12460;DHT22;6295;49.452;8.466;2023-05-07T18:35:00;16.50;99.90
12460;DHT22;6295;49.452;8.466;2023-05-07T18:43:04;16.50;99.90
12460;DHT22;6295;49.452;8.466;2023-05-07T18:47:06;16.50;99.90
12460;DHT22;6295;49.452;8.466;2023-05-07T18:51:10;16.50;99.90
12460;DHT22;6295;49.452;8.466;2023-05-07T18:55:12;16.50;99.90
